createdAt,value
2022-10-09T00:01:15.371Z,63.40
2022-10-09T00:03:43.809Z,63.32
2022-10-09T00:06:12.181Z,62.74
2022-10-09T00:08:39.711Z,62.53
2022-10-09T00:11:07.813Z,62.26
2022-10-09T00:13:34.587Z,62.26
2022-10-09T00:16:06.049Z,62.90
2022-10-09T00:18:33.064Z,63.04
2022-10-09T00:20:59.416Z,63.14
2022-10-09T00:23:26.223Z,63.38
2022-10-09T00:25:56.031Z,63.67
2022-10-09T00:28:24.114Z,63.95
2022-10-09T00:30:50.991Z,63.94
2022-10-09T00:33:17.859Z,65.00
2022-10-09T00:35:44.177Z,64.52
2022-10-09T00:38:11.216Z,65.67
2022-10-09T00:40:38.621Z,66.16
2022-10-09T00:43:13.166Z,65.59
2022-10-09T00:45:44.915Z,66.04
2022-10-09T00:48:12.241Z,65.98
2022-10-09T00:50:41.886Z,65.88
2022-10-09T00:53:13.374Z,66.65
2022-10-09T00:55:40.140Z,65.69
2022-10-09T00:58:06.800Z,66.23
2022-10-09T01:00:33.133Z,65.92
2022-10-09T01:02:59.808Z,65.61
2022-10-09T01:05:42.944Z,65.73
2022-10-09T01:08:24.892Z,66.44
2022-10-09T01:11:04.178Z,67.03
2022-10-09T01:13:38.731Z,67.30
2022-10-09T01:16:20.362Z,67.39
2022-10-09T01:19:12.511Z,68.03
2022-10-09T01:21:46.579Z,67.54
2022-10-09T01:24:24.575Z,68.00
2022-10-09T01:26:55.879Z,68.69
2022-10-09T01:29:26.595Z,67.71
2022-10-09T01:31:54.119Z,67.65
2022-10-09T01:34:21.568Z,68.02
2022-10-09T01:36:48.539Z,68.27
2022-10-09T01:39:21.284Z,67.72
2022-10-09T01:41:50.837Z,68.14
2022-10-09T01:44:18.666Z,67.50
2022-10-09T01:46:45.775Z,68.39
2022-10-09T01:49:24.948Z,67.76
2022-10-09T01:52:00.420Z,68.07
2022-10-09T01:55:02.932Z,68.06
2022-10-09T01:57:37.272Z,67.99
2022-10-09T02:00:08.310Z,67.69
2022-10-09T02:02:35.580Z,67.91
2022-10-09T02:05:02.135Z,68.08
2022-10-09T02:07:31.397Z,67.88
2022-10-09T02:10:01.569Z,67.94
2022-10-09T02:12:31.785Z,67.85
2022-10-09T02:14:58.173Z,68.10
2022-10-09T02:17:30.755Z,67.81
2022-10-09T02:20:03.534Z,67.50
2022-10-09T02:22:31.410Z,67.80
2022-10-09T02:25:00.589Z,67.94
2022-10-09T02:27:27.987Z,67.08
2022-10-09T02:29:54.959Z,67.39
2022-10-09T02:32:21.627Z,67.37
2022-10-09T02:34:47.911Z,67.91
2022-10-09T02:37:14.668Z,67.99
2022-10-09T02:39:41.958Z,67.74
2022-10-09T02:42:08.259Z,67.46
2022-10-09T02:44:34.680Z,67.14
2022-10-09T02:47:01.217Z,66.84
2022-10-09T02:49:27.516Z,67.06
2022-10-09T02:51:53.820Z,66.46
2022-10-09T02:54:20.110Z,66.80
2022-10-09T02:56:46.417Z,66.75
2022-10-09T02:59:12.702Z,68.04
2022-10-09T03:01:39.165Z,68.64
2022-10-09T03:04:05.670Z,68.60
2022-10-09T03:06:32.812Z,67.52
2022-10-09T03:08:59.105Z,67.80
2022-10-09T03:11:26.408Z,67.88
2022-10-09T03:13:54.289Z,68.58
2022-10-09T03:16:23.759Z,68.48
2022-10-09T03:18:51.127Z,68.10
2022-10-09T03:21:20.042Z,67.78
2022-10-09T03:23:47.070Z,68.47
2022-10-09T03:26:16.463Z,68.57
2022-10-09T03:28:46.819Z,68.53
2022-10-09T03:31:33.097Z,68.99
2022-10-09T03:34:00.956Z,68.71
2022-10-09T03:36:27.235Z,68.76
2022-10-09T03:38:53.525Z,69.01
2022-10-09T03:41:19.810Z,69.19
2022-10-09T03:43:46.109Z,69.54
2022-10-09T03:46:12.672Z,69.09
2022-10-09T03:48:39.031Z,68.76
2022-10-09T03:51:05.483Z,68.89
2022-10-09T03:53:31.885Z,69.22
2022-10-09T03:55:58.423Z,68.84
2022-10-09T03:58:24.826Z,68.45
2022-10-09T04:00:52.758Z,68.18
2022-10-09T04:03:19.662Z,69.25
2022-10-09T04:05:47.094Z,69.16
2022-10-09T04:08:13.476Z,69.34
2022-10-09T04:10:39.798Z,69.30
2022-10-09T04:13:06.482Z,69.41
2022-10-09T04:15:32.835Z,69.36
2022-10-09T04:17:59.199Z,69.55
2022-10-09T04:20:25.570Z,69.56
2022-10-09T04:22:52.042Z,68.77
2022-10-09T04:25:18.439Z,68.95
2022-10-09T04:27:44.754Z,68.65
2022-10-09T04:30:11.348Z,68.31
2022-10-09T04:32:37.668Z,68.12
2022-10-09T04:35:04.632Z,68.09
2022-10-09T04:37:30.957Z,67.73
2022-10-09T04:39:57.246Z,67.31
2022-10-09T04:42:23.529Z,67.37
2022-10-09T04:44:49.853Z,67.21
2022-10-09T04:47:17.386Z,67.70
2022-10-09T04:49:43.680Z,67.05
2022-10-09T04:52:09.980Z,67.53
2022-10-09T04:54:36.255Z,67.31
2022-10-09T04:57:02.562Z,67.68
2022-10-09T04:59:29.109Z,67.98
2022-10-09T05:01:55.422Z,67.52
2022-10-09T05:04:21.764Z,68.04
2022-10-09T05:06:48.123Z,68.00
2022-10-09T05:09:14.419Z,67.99
2022-10-09T05:11:42.879Z,68.30
2022-10-09T05:14:09.762Z,68.65
2022-10-09T05:17:01.025Z,67.95
2022-10-09T05:19:23.172Z,68.42
2022-10-09T05:21:49.473Z,68.12
2022-10-09T05:24:15.763Z,67.91
2022-10-09T05:26:42.077Z,67.27
2022-10-09T05:29:08.400Z,67.03
2022-10-09T05:31:34.870Z,67.71
2022-10-09T05:34:01.968Z,67.46
2022-10-09T05:36:28.427Z,66.91
2022-10-09T05:38:55.572Z,67.13
2022-10-09T05:41:21.851Z,67.13
2022-10-09T05:43:49.581Z,67.20
2022-10-09T05:46:17.283Z,67.66
2022-10-09T05:48:45.699Z,67.84
2022-10-09T05:51:15.103Z,68.06
2022-10-09T05:53:42.603Z,67.97
2022-10-09T05:56:39.335Z,67.66
2022-10-09T05:59:11.152Z,67.73
2022-10-09T06:01:40.141Z,68.25
2022-10-09T06:04:10.773Z,68.21
2022-10-09T06:06:39.485Z,68.01
2022-10-09T06:09:07.043Z,69.14
2022-10-09T06:11:35.410Z,69.52
2022-10-09T06:14:05.354Z,69.18
2022-10-09T06:16:34.904Z,69.08
2022-10-09T06:19:02.358Z,68.39
2022-10-09T06:21:29.291Z,68.94
2022-10-09T06:23:58.573Z,68.98
2022-10-09T06:26:26.321Z,69.10
2022-10-09T06:28:52.941Z,69.27
2022-10-09T06:31:21.789Z,69.67
2022-10-09T06:33:50.062Z,69.66
2022-10-09T06:36:26.043Z,68.72
2022-10-09T06:38:53.135Z,68.38
2022-10-09T06:41:24.303Z,68.56
2022-10-09T06:43:51.796Z,68.57
2022-10-09T06:46:19.726Z,69.46
2022-10-09T06:48:46.372Z,68.76
2022-10-09T06:51:18.391Z,69.15
2022-10-09T06:53:50.106Z,68.93
2022-10-09T06:56:18.380Z,69.12
2022-10-09T06:58:45.089Z,68.27
2022-10-09T07:01:20.228Z,68.08
2022-10-09T07:03:52.188Z,68.02
2022-10-09T07:06:21.389Z,67.78
2022-10-09T07:08:50.724Z,68.02
2022-10-09T07:11:21.213Z,67.92
2022-10-09T07:13:50.688Z,68.21
2022-10-09T07:16:23.397Z,67.62
2022-10-09T07:18:50.325Z,67.63
2022-10-09T07:21:16.966Z,67.03
2022-10-09T07:23:43.642Z,66.42
2022-10-09T07:26:13.079Z,66.61
2022-10-09T07:28:41.076Z,66.05
2022-10-09T07:31:08.065Z,65.94
2022-10-09T07:33:34.560Z,66.13
2022-10-09T07:36:02.747Z,65.44
2022-10-09T07:38:29.527Z,65.65
2022-10-09T07:41:09.493Z,65.65
2022-10-09T07:43:37.413Z,65.84
2022-10-09T07:46:05.848Z,65.37
2022-10-09T07:48:33.969Z,66.07
2022-10-09T07:51:08.076Z,65.97
2022-10-09T07:53:36.038Z,65.88
2022-10-09T07:56:04.241Z,65.35
2022-10-09T07:58:30.960Z,65.18
2022-10-09T08:01:03.524Z,64.90
2022-10-09T08:03:29.847Z,64.88
2022-10-09T08:05:56.908Z,65.32
2022-10-09T08:08:23.219Z,65.97
2022-10-09T08:10:49.525Z,65.65
2022-10-09T08:13:16.582Z,65.56
2022-10-09T08:15:44.027Z,64.78
2022-10-09T08:18:11.593Z,65.16
2022-10-09T08:20:38.838Z,64.95
2022-10-09T08:23:06.059Z,64.52
2022-10-09T08:25:36.806Z,64.31
2022-10-09T08:28:04.707Z,63.81
2022-10-09T08:30:31.349Z,63.99
2022-10-09T08:32:57.657Z,63.75
2022-10-09T08:35:23.994Z,63.78
2022-10-09T08:37:50.539Z,63.64
2022-10-09T08:40:21.903Z,63.48
2022-10-09T08:42:59.833Z,63.49
2022-10-09T08:45:26.467Z,62.96
2022-10-09T08:48:00.995Z,62.70
2022-10-09T08:50:35.722Z,62.12
2022-10-09T08:53:19.261Z,62.23
2022-10-09T08:55:50.630Z,62.38
2022-10-09T08:58:20.030Z,62.36
2022-10-09T09:00:54.106Z,61.95
2022-10-09T09:03:53.385Z,61.68
2022-10-09T09:06:46.838Z,61.69
2022-10-09T09:09:44.143Z,61.75
2022-10-09T09:12:22.777Z,62.12
2022-10-09T09:14:49.005Z,61.49
2022-10-09T09:17:30.213Z,62.07
2022-10-09T09:20:21.120Z,61.88
2022-10-09T09:22:50.036Z,61.65
2022-10-09T09:25:22.875Z,61.75
2022-10-09T09:27:51.795Z,61.33
2022-10-09T09:30:27.710Z,61.63
2022-10-09T09:32:59.186Z,62.12
2022-10-09T09:35:50.233Z,61.47
2022-10-09T09:38:17.187Z,61.63
2022-10-09T09:40:47.332Z,62.12
2022-10-09T09:43:18.084Z,62.03
2022-10-09T09:45:45.781Z,62.38
2022-10-09T09:48:30.950Z,62.82
2022-10-09T09:51:16.025Z,62.92
2022-10-09T09:53:48.394Z,62.79
2022-10-09T09:56:15.677Z,62.32
2022-10-09T09:58:48.702Z,62.86
2022-10-09T10:01:24.345Z,62.90
2022-10-09T10:03:53.816Z,63.55
2022-10-09T10:06:25.701Z,64.06
2022-10-09T10:09:15.932Z,64.12
2022-10-09T10:12:03.760Z,64.15
2022-10-09T10:14:31.985Z,64.06
2022-10-09T10:17:00.616Z,64.03
2022-10-09T10:19:29.666Z,63.91
2022-10-09T10:22:01.549Z,64.01
2022-10-09T10:24:33.874Z,63.91
2022-10-09T10:27:09.577Z,64.21
2022-10-09T10:29:41.093Z,63.17
2022-10-09T10:32:38.220Z,62.29
2022-10-09T10:35:13.106Z,63.25
2022-10-09T10:38:03.902Z,62.82
2022-10-09T10:41:04.752Z,63.85
2022-10-09T10:43:38.815Z,63.48
2022-10-09T10:46:10.205Z,63.41
2022-10-09T10:48:42.777Z,62.58
2022-10-09T10:51:34.526Z,62.99
2022-10-09T10:54:19.596Z,62.73
2022-10-09T10:56:55.538Z,62.39
2022-10-09T10:59:39.751Z,62.53
2022-10-09T11:02:32.920Z,62.06
2022-10-09T11:05:02.544Z,62.13
2022-10-09T11:08:00.367Z,62.44
2022-10-09T11:10:59.508Z,61.47
2022-10-09T11:13:34.835Z,61.45
2022-10-09T11:16:18.852Z,61.17
2022-10-09T11:19:36.198Z,61.11
2022-10-09T11:22:20.990Z,61.39
2022-10-09T11:25:29.450Z,60.93
2022-10-09T11:28:03.670Z,60.90
2022-10-09T11:30:45.020Z,61.46
2022-10-09T11:33:22.891Z,61.15
2022-10-09T11:35:56.348Z,61.37
2022-10-09T11:38:29.676Z,60.83
2022-10-09T11:40:57.835Z,61.14
2022-10-09T11:43:27.057Z,61.17
2022-10-09T11:46:14.845Z,62.30
2022-10-09T11:48:48.090Z,61.45
2022-10-09T11:51:40.696Z,61.34
2022-10-09T11:54:13.263Z,61.49
2022-10-09T11:56:39.563Z,62.17
2022-10-09T11:59:07.832Z,62.04
2022-10-09T12:01:37.570Z,62.01
2022-10-09T12:04:13.205Z,61.97
2022-10-09T12:06:48.491Z,61.75
2022-10-09T12:09:35.080Z,61.97
2022-10-09T12:12:07.305Z,61.56
2022-10-09T12:14:36.861Z,62.47
2022-10-09T12:17:31.344Z,61.53
2022-10-09T12:20:20.260Z,61.48
2022-10-09T12:23:13.903Z,62.44
2022-10-09T12:25:43.747Z,62.73
2022-10-09T12:28:33.692Z,62.55
2022-10-09T12:31:03.287Z,61.91
2022-10-09T12:33:36.268Z,61.76
2022-10-09T12:36:13.309Z,61.03
2022-10-09T12:38:40.213Z,61.13
2022-10-09T12:41:17.941Z,60.61
2022-10-09T12:43:47.476Z,60.60
2022-10-09T12:46:13.906Z,60.34
2022-10-09T12:48:42.467Z,60.61
2022-10-09T12:51:23.084Z,60.38
2022-10-09T12:53:51.356Z,61.16
2022-10-09T12:56:26.853Z,61.43
2022-10-09T12:58:54.253Z,62.15
2022-10-09T13:01:21.728Z,61.60
2022-10-09T13:04:04.982Z,61.67
2022-10-09T13:06:44.086Z,61.53
2022-10-09T13:09:22.119Z,60.99
2022-10-09T13:11:55.576Z,60.83
2022-10-09T13:14:44.030Z,60.84
2022-10-09T13:17:24.700Z,61.15
2022-10-09T13:19:54.575Z,60.79
2022-10-09T13:22:23.602Z,60.81
2022-10-09T13:24:53.259Z,60.45
2022-10-09T13:27:21.381Z,60.41
2022-10-09T13:29:48.559Z,60.08
2022-10-09T13:32:16.877Z,60.30
2022-10-09T13:34:45.393Z,60.16
2022-10-09T13:37:13.959Z,60.30
2022-10-09T13:39:40.293Z,60.36
2022-10-09T13:42:06.887Z,59.91
2022-10-09T13:44:33.188Z,59.77
2022-10-09T13:47:00.082Z,60.39
2022-10-09T13:49:26.473Z,60.09
2022-10-09T13:51:52.827Z,60.24
2022-10-09T13:54:19.145Z,59.87
2022-10-09T13:56:45.434Z,60.18
2022-10-09T13:59:12.034Z,60.05
2022-10-09T14:01:38.372Z,60.67
2022-10-09T14:04:04.753Z,61.58
2022-10-09T14:06:34.186Z,61.08
2022-10-09T14:09:00.486Z,60.56
2022-10-09T14:11:26.796Z,60.48
2022-10-09T14:13:53.089Z,60.19
2022-10-09T14:16:19.380Z,60.90
2022-10-09T14:18:45.672Z,59.99
2022-10-09T14:21:15.256Z,60.17
2022-10-09T14:23:42.218Z,59.75
2022-10-09T14:26:08.875Z,60.32
2022-10-09T14:28:35.317Z,60.21
2022-10-09T14:31:07.653Z,59.40
2022-10-09T14:33:34.114Z,59.55
2022-10-09T14:36:11.658Z,59.96
2022-10-09T14:38:39.026Z,59.83
2022-10-09T14:41:05.962Z,60.15
2022-10-09T14:43:32.914Z,59.85
2022-10-09T14:46:03.359Z,60.38
2022-10-09T14:48:29.635Z,60.57
2022-10-09T14:50:55.932Z,60.39
2022-10-09T14:53:22.399Z,60.72
2022-10-09T14:55:48.689Z,60.26
2022-10-09T14:58:15.163Z,60.76
2022-10-09T15:00:46.453Z,60.24
2022-10-09T15:03:12.826Z,60.13
2022-10-09T15:05:39.122Z,60.64
2022-10-09T15:08:05.403Z,60.15
2022-10-09T15:10:34.237Z,60.55
2022-10-09T15:13:00.516Z,60.23
2022-10-09T15:15:30.312Z,60.03
2022-10-09T15:17:58.917Z,59.76
2022-10-09T15:20:25.205Z,59.61
2022-10-09T15:22:51.531Z,59.80
2022-10-09T15:25:17.889Z,59.87
2022-10-09T15:27:44.184Z,60.30
2022-10-09T15:30:11.123Z,59.96
2022-10-09T15:32:37.469Z,59.82
2022-10-09T15:35:03.999Z,59.92
2022-10-09T15:37:30.301Z,59.67
2022-10-09T15:39:56.667Z,60.14
2022-10-09T15:42:22.945Z,60.49
2022-10-09T15:44:49.257Z,60.87
2022-10-09T15:47:16.521Z,60.27
2022-10-09T15:49:46.598Z,60.66
2022-10-09T15:52:15.435Z,60.58
2022-10-09T15:54:41.710Z,60.54
2022-10-09T15:57:08.052Z,60.52
2022-10-09T15:59:37.170Z,60.66
2022-10-09T16:02:03.791Z,60.36
2022-10-09T16:04:30.148Z,60.98
2022-10-09T16:06:57.997Z,60.75
2022-10-09T16:09:24.286Z,60.87
2022-10-09T16:11:50.561Z,60.86
2022-10-09T16:14:16.834Z,62.92
2022-10-09T16:16:43.109Z,62.74
2022-10-09T16:19:09.413Z,62.10
2022-10-09T16:21:35.723Z,62.20
2022-10-09T16:24:02.030Z,61.59
2022-10-09T16:26:29.257Z,62.03
2022-10-09T16:28:55.694Z,62.21
2022-10-09T16:31:24.386Z,61.71
2022-10-09T16:33:50.739Z,61.99
2022-10-09T16:36:17.168Z,62.26
2022-10-09T16:38:43.875Z,62.53
2022-10-09T16:41:17.975Z,61.97
2022-10-09T16:43:45.991Z,61.85
2022-10-09T16:46:28.898Z,62.08
2022-10-09T16:48:57.074Z,62.11
2022-10-09T16:51:29.123Z,61.88
2022-10-09T16:53:58.615Z,62.41
2022-10-09T16:56:29.526Z,62.59
2022-10-09T16:58:57.676Z,62.50
2022-10-09T17:01:25.130Z,62.70
2022-10-09T17:03:54.088Z,63.03
2022-10-09T17:06:20.877Z,63.03
2022-10-09T17:08:47.999Z,63.23
2022-10-09T17:11:15.071Z,63.59
2022-10-09T17:13:41.646Z,63.51
2022-10-09T17:16:15.694Z,63.57
2022-10-09T17:18:44.713Z,63.64
2022-10-09T17:21:16.497Z,63.49
2022-10-09T17:23:42.822Z,64.50
2022-10-09T17:26:15.337Z,64.08
2022-10-09T17:28:42.566Z,64.32
2022-10-09T17:31:14.013Z,64.02
2022-10-09T17:33:42.831Z,64.48
2022-10-09T17:36:10.579Z,64.48
2022-10-09T17:38:37.131Z,64.52
2022-10-09T17:41:08.758Z,64.54
2022-10-09T17:43:35.371Z,65.08
2022-10-09T17:46:01.886Z,64.73
2022-10-09T17:48:29.640Z,64.62
2022-10-09T17:50:57.775Z,64.48
2022-10-09T17:53:25.193Z,64.07
2022-10-09T17:55:53.300Z,64.28
2022-10-09T17:58:21.513Z,64.52
2022-10-09T18:00:48.787Z,64.65
2022-10-09T18:03:16.538Z,64.67
2022-10-09T18:05:48.949Z,64.78
2022-10-09T18:08:18.038Z,64.95
2022-10-09T18:10:44.899Z,64.91
2022-10-09T18:13:11.742Z,65.34
2022-10-09T18:15:43.253Z,65.47
2022-10-09T18:18:10.943Z,65.26
2022-10-09T18:20:39.197Z,65.62
2022-10-09T18:23:06.878Z,65.55
2022-10-09T18:25:33.391Z,65.70
2022-10-09T18:28:00.171Z,65.84
2022-10-09T18:30:27.488Z,66.02
2022-10-09T18:32:53.800Z,65.99
2022-10-09T18:35:20.140Z,66.09
2022-10-09T18:37:46.467Z,65.77
2022-10-09T18:40:13.922Z,66.16
2022-10-09T18:42:40.247Z,66.01
2022-10-09T18:45:07.590Z,65.54
2022-10-09T18:47:35.591Z,65.97
2022-10-09T18:50:06.363Z,65.58
2022-10-09T18:52:33.769Z,65.28
2022-10-09T18:55:00.891Z,65.56
2022-10-09T18:57:27.278Z,65.54
2022-10-09T18:59:55.399Z,65.80
2022-10-09T19:02:26.145Z,66.10
2022-10-09T19:04:53.885Z,66.55
2022-10-09T19:07:20.357Z,66.73
2022-10-09T19:09:51.368Z,66.06
2022-10-09T19:12:21.311Z,66.55
2022-10-09T19:14:47.669Z,66.24
2022-10-09T19:17:14.465Z,66.97
2022-10-09T19:19:41.083Z,66.63
2022-10-09T19:22:09.714Z,66.83
2022-10-09T19:24:39.223Z,66.92
2022-10-09T19:27:06.492Z,67.07
2022-10-09T19:29:33.090Z,67.12
2022-10-09T19:31:59.465Z,68.05
2022-10-09T19:34:25.812Z,67.85
2022-10-09T19:36:52.215Z,67.47
2022-10-09T19:39:19.386Z,67.55
2022-10-09T19:41:53.592Z,67.03
2022-10-09T19:44:19.941Z,67.08
2022-10-09T19:46:51.616Z,67.25
2022-10-09T19:49:18.369Z,66.63
2022-10-09T19:51:45.816Z,67.01
2022-10-09T19:54:12.281Z,67.03
2022-10-09T19:56:40.162Z,67.29
2022-10-09T19:59:17.277Z,68.91
2022-10-09T20:01:43.799Z,69.33
2022-10-09T20:04:10.916Z,69.26
2022-10-09T20:06:42.603Z,68.45
2022-10-09T20:09:15.587Z,68.32
2022-10-09T20:11:48.654Z,68.30
2022-10-09T20:14:15.487Z,68.66
2022-10-09T20:16:41.983Z,68.42
2022-10-09T20:19:08.394Z,68.65
2022-10-09T20:21:38.379Z,68.52
2022-10-09T20:24:06.266Z,68.29
2022-10-09T20:26:33.091Z,67.91
2022-10-09T20:28:59.993Z,68.23
2022-10-09T20:31:30.141Z,68.17
2022-10-09T20:33:56.743Z,68.59
2022-10-09T20:36:42.292Z,68.12
2022-10-09T20:39:15.169Z,68.16
2022-10-09T20:41:54.774Z,67.80
2022-10-09T20:44:21.944Z,67.90
2022-10-09T20:46:58.424Z,68.05
2022-10-09T20:49:32.418Z,67.58
2022-10-09T20:51:58.905Z,67.76
2022-10-09T20:54:27.851Z,67.59
2022-10-09T20:57:03.980Z,67.78
2022-10-09T20:59:30.350Z,68.13
2022-10-09T21:01:57.119Z,67.82
2022-10-09T21:04:25.912Z,67.71
2022-10-09T21:06:54.918Z,67.71
2022-10-09T21:09:21.633Z,67.44
2022-10-09T21:11:48.421Z,68.01
2022-10-09T21:14:15.326Z,67.44
2022-10-09T21:16:42.026Z,67.35
2022-10-09T21:19:10.704Z,67.81
2022-10-09T21:21:37.006Z,67.82
2022-10-09T21:24:03.616Z,67.82
2022-10-09T21:26:35.141Z,67.89
2022-10-09T21:29:04.058Z,67.95
2022-10-09T21:31:31.598Z,67.70
2022-10-09T21:33:59.932Z,67.99
2022-10-09T21:37:16.391Z,67.91
2022-10-09T21:39:34.709Z,67.98
2022-10-09T21:42:01.011Z,67.79
2022-10-09T21:44:27.531Z,67.38
2022-10-09T21:46:53.911Z,67.38
2022-10-09T21:49:23.042Z,67.39
2022-10-09T21:51:49.742Z,67.73
2022-10-09T21:54:16.479Z,68.08
2022-10-09T21:56:42.984Z,68.25
2022-10-09T21:59:09.776Z,68.10
2022-10-09T22:01:36.256Z,67.46
2022-10-09T22:04:02.921Z,67.65
2022-10-09T22:06:29.264Z,67.25
2022-10-09T22:08:55.665Z,67.94
2022-10-09T22:11:22.127Z,68.08
2022-10-09T22:13:48.454Z,68.02
2022-10-09T22:16:15.457Z,68.08
2022-10-09T22:18:42.495Z,68.25
2022-10-09T22:21:13.635Z,68.90
2022-10-09T22:23:40.620Z,68.83
2022-10-09T22:26:11.173Z,68.34
2022-10-09T22:28:37.854Z,68.67
2022-10-09T22:31:13.540Z,68.35
2022-10-09T22:33:40.046Z,68.59
2022-10-09T22:36:12.321Z,69.47
2022-10-09T22:38:40.012Z,68.72
2022-10-09T22:41:10.211Z,68.62
2022-10-09T22:43:37.731Z,68.77
2022-10-09T22:46:06.316Z,69.18
2022-10-09T22:48:32.706Z,69.30
2022-10-09T22:51:01.764Z,69.33
2022-10-09T22:53:28.067Z,69.45
2022-10-09T22:55:54.387Z,69.54
2022-10-09T22:58:20.698Z,69.05
2022-10-09T23:00:47.329Z,69.03
2022-10-09T23:03:13.698Z,69.38
2022-10-09T23:05:39.985Z,69.10
2022-10-09T23:08:06.267Z,69.13
2022-10-09T23:10:37.237Z,69.34
2022-10-09T23:13:03.940Z,69.55
2022-10-09T23:15:30.501Z,69.12
2022-10-09T23:17:56.799Z,69.61
2022-10-09T23:20:23.089Z,69.49
2022-10-09T23:22:49.717Z,69.10
2022-10-09T23:25:16.189Z,69.57
2022-10-09T23:27:42.500Z,69.27
2022-10-09T23:30:09.278Z,69.43
2022-10-09T23:32:35.590Z,69.65
2022-10-09T23:35:01.871Z,70.28
2022-10-09T23:37:28.197Z,69.81
2022-10-09T23:39:54.509Z,70.38
2022-10-09T23:42:20.850Z,69.64
2022-10-09T23:44:47.212Z,69.97
2022-10-09T23:47:13.637Z,69.62
2022-10-09T23:49:40.115Z,70.22
2022-10-09T23:52:06.416Z,70.40
2022-10-09T23:54:32.905Z,70.02
2022-10-09T23:56:59.306Z,70.15
2022-10-09T23:59:25.597Z,69.88
